createdAt,value
2022-11-03T00:02:09.787Z,14.23
2022-11-03T00:04:37.542Z,13.23
2022-11-03T00:07:05.147Z,16.88
2022-11-03T00:09:32.691Z,10.93
2022-11-03T00:12:01.096Z,9.88
2022-11-03T00:14:39.284Z,17.02
2022-11-03T00:17:06.648Z,14.65
2022-11-03T00:19:33.959Z,17.40
2022-11-03T00:22:01.150Z,11.80
2022-11-03T00:24:28.234Z,14.98
2022-11-03T00:26:55.431Z,14.05
2022-11-03T00:29:22.735Z,12.10
2022-11-03T00:31:49.892Z,13.55
2022-11-03T00:34:17.430Z,13.80
2022-11-03T00:36:45.518Z,11.93
2022-11-03T00:39:13.356Z,11.68
2022-11-03T00:41:41.225Z,15.15
2022-11-03T00:44:10.659Z,10.13
2022-11-03T00:46:38.282Z,10.43
2022-11-03T00:49:06.260Z,9.52
2022-11-03T00:51:36.817Z,12.00
2022-11-03T00:54:05.858Z,11.25
2022-11-03T00:56:41.911Z,14.00
2022-11-03T00:59:10.229Z,14.60
2022-11-03T01:01:47.040Z,11.25
2022-11-03T01:04:36.006Z,13.05
2022-11-03T01:07:05.191Z,15.02
2022-11-03T01:09:40.470Z,10.00
2022-11-03T01:12:15.042Z,10.00
2022-11-03T01:14:50.394Z,14.32
2022-11-03T01:17:24.128Z,13.30
2022-11-03T01:19:52.267Z,10.90
2022-11-03T01:22:22.143Z,16.70
2022-11-03T01:24:49.603Z,14.27
2022-11-03T01:27:19.828Z,11.00
2022-11-03T01:29:47.074Z,10.77
2022-11-03T01:32:14.572Z,10.13
2022-11-03T01:34:42.171Z,6.80
2022-11-03T01:37:09.370Z,11.80
2022-11-03T01:39:36.518Z,9.98
2022-11-03T01:42:04.089Z,8.88
2022-11-03T01:44:36.494Z,7.25
2022-11-03T01:47:18.975Z,9.88
2022-11-03T01:50:02.342Z,8.25
2022-11-03T01:52:43.158Z,6.18
2022-11-03T01:55:23.694Z,7.55
2022-11-03T01:58:05.977Z,11.13
2022-11-03T02:00:34.894Z,7.30
2022-11-03T02:03:02.604Z,8.30
2022-11-03T02:05:30.636Z,10.00
2022-11-03T02:08:16.212Z,7.53
2022-11-03T02:10:46.653Z,9.00
2022-11-03T02:13:25.121Z,6.68
2022-11-03T02:15:59.393Z,7.85
2022-11-03T02:23:23.926Z,14.60
2022-11-03T02:25:57.986Z,12.27
2022-11-03T02:28:33.405Z,11.32
2022-11-03T02:31:41.448Z,8.77
2022-11-03T02:34:21.374Z,10.60
2022-11-03T02:37:11.236Z,12.43
2022-11-03T02:39:51.516Z,15.27
2022-11-03T02:42:22.008Z,15.30
2022-11-03T02:44:49.806Z,11.63
2022-11-03T02:47:19.181Z,7.70
2022-11-03T02:49:49.959Z,10.80
2022-11-03T02:52:43.879Z,10.95
2022-11-03T02:55:38.959Z,11.30
2022-11-03T02:58:13.001Z,8.60
2022-11-03T03:01:01.784Z,10.40
2022-11-03T03:03:40.765Z,11.90
2022-11-03T03:06:19.515Z,12.20
2022-11-03T03:08:54.073Z,10.52
2022-11-03T03:11:39.859Z,7.43
2022-11-03T03:14:20.311Z,11.15
2022-11-03T03:17:00.990Z,8.95
2022-11-03T03:19:38.360Z,8.02
2022-11-03T03:22:26.873Z,8.45
2022-11-03T03:25:18.980Z,9.52
2022-11-03T03:27:55.646Z,10.77
2022-11-03T03:30:23.415Z,14.57
2022-11-03T03:32:52.904Z,10.35
2022-11-03T03:35:28.220Z,9.20
2022-11-03T03:38:03.444Z,10.90
2022-11-03T03:40:44.165Z,9.18
2022-11-03T03:43:14.583Z,14.40
2022-11-03T03:45:46.032Z,12.63
2022-11-03T03:48:14.321Z,11.90
2022-11-03T03:50:44.555Z,17.75
2022-11-03T03:53:19.799Z,16.33
2022-11-03T03:55:51.036Z,14.00
2022-11-03T03:58:18.706Z,15.88
2022-11-03T04:00:46.529Z,10.48
2022-11-03T04:03:22.761Z,11.80
2022-11-03T04:05:50.759Z,13.95
2022-11-03T04:08:18.660Z,12.13
2022-11-03T04:11:06.600Z,11.60
2022-11-03T04:13:52.839Z,13.23
2022-11-03T04:16:38.997Z,11.90
2022-11-03T04:19:24.637Z,11.05
2022-11-03T04:22:10.615Z,10.52
2022-11-03T04:24:37.918Z,13.82
2022-11-03T04:27:34.255Z,19.45
2022-11-03T04:30:16.373Z,10.38
2022-11-03T04:32:46.494Z,10.63
2022-11-03T04:35:23.075Z,8.48
2022-11-03T04:38:00.665Z,10.85
2022-11-03T04:40:28.922Z,10.65
2022-11-03T04:42:56.411Z,19.35
2022-11-03T04:46:14.110Z,14.82
2022-11-03T04:48:42.326Z,14.25
2022-11-03T04:51:47.325Z,17.30
2022-11-03T04:54:42.841Z,12.55
2022-11-03T04:58:02.969Z,19.08
2022-11-03T05:00:42.349Z,15.88
2022-11-03T05:06:55.841Z,19.77
2022-11-03T05:09:32.446Z,13.75
2022-11-03T05:11:59.586Z,13.95
2022-11-03T05:14:32.236Z,18.75
2022-11-03T05:17:02.451Z,11.82
2022-11-03T05:19:40.982Z,19.80
2022-11-03T05:22:19.983Z,13.73
2022-11-03T05:24:47.289Z,15.73
2022-11-03T05:27:22.127Z,11.85
2022-11-03T05:29:55.184Z,16.08
2022-11-03T05:32:30.137Z,12.00
2022-11-03T05:34:59.198Z,12.35
2022-11-03T05:37:35.907Z,13.45
2022-11-03T05:40:25.677Z,24.08
2022-11-03T05:43:01.646Z,11.50
2022-11-03T05:45:56.775Z,11.48
2022-11-03T05:49:02.311Z,17.63
2022-11-03T05:51:44.448Z,22.52
2022-11-03T05:54:34.158Z,13.38
2022-11-03T05:57:01.626Z,14.73
2022-11-03T05:59:30.416Z,13.30
2022-11-03T06:02:01.397Z,16.15
2022-11-03T06:04:40.532Z,12.38
2022-11-03T06:11:58.199Z,16.55
2022-11-03T06:14:41.595Z,19.08
2022-11-03T06:17:19.613Z,12.30
2022-11-03T06:20:00.286Z,19.73
2022-11-03T06:22:46.140Z,19.70
2022-11-03T06:25:26.664Z,26.02
2022-11-03T06:27:57.512Z,21.70
2022-11-03T06:30:32.397Z,15.45
2022-11-03T06:33:31.074Z,25.48
2022-11-03T06:36:23.080Z,19.30
2022-11-03T06:39:00.222Z,28.02
2022-11-03T06:41:32.313Z,21.10
2022-11-03T06:52:50.780Z,21.38
2022-11-03T06:55:31.215Z,15.15
2022-11-03T06:58:30.768Z,20.33
2022-11-03T07:01:08.397Z,21.85
2022-11-03T07:04:13.241Z,20.48
2022-11-03T07:06:50.367Z,22.85
2022-11-03T07:09:28.282Z,17.67
2022-11-03T07:12:01.684Z,18.13
2022-11-03T07:14:35.757Z,22.88
2022-11-03T07:17:07.228Z,17.75
2022-11-03T07:19:41.958Z,19.95
2022-11-03T07:22:29.810Z,13.32
2022-11-03T07:25:14.186Z,20.08
2022-11-03T07:27:42.017Z,16.77
2022-11-03T07:30:30.082Z,22.48
2022-11-03T07:33:24.901Z,16.63
2022-11-03T07:39:21.441Z,17.30
2022-11-03T07:41:57.595Z,18.38
2022-11-03T07:44:36.008Z,19.33
2022-11-03T07:47:27.864Z,17.80
2022-11-03T07:49:56.607Z,13.90
2022-11-03T07:52:27.015Z,17.33
2022-11-03T07:54:59.395Z,19.55
2022-11-03T07:57:29.514Z,16.65
2022-11-03T08:00:10.227Z,18.20
2022-11-03T08:02:57.485Z,13.15
2022-11-03T08:05:24.699Z,18.38
2022-11-03T08:07:51.795Z,14.63
2022-11-03T08:10:19.016Z,15.30
2022-11-03T08:13:05.798Z,19.48
2022-11-03T08:16:18.397Z,17.85
2022-11-03T08:35:31.412Z,13.63
2022-11-03T08:38:02.425Z,17.33
2022-11-03T08:40:31.654Z,17.17
2022-11-03T08:47:53.170Z,15.80
2022-11-03T08:50:37.456Z,15.35
2022-11-03T08:56:10.485Z,12.88
2022-11-03T08:58:40.046Z,13.75
2022-11-03T09:01:08.157Z,11.90
2022-11-03T09:03:35.771Z,13.13
2022-11-03T09:06:03.200Z,12.95
2022-11-03T09:12:07.430Z,14.55
2022-11-03T09:14:40.657Z,11.77
2022-11-03T09:17:13.931Z,12.25
2022-11-03T09:19:41.120Z,10.52
2022-11-03T09:22:14.175Z,12.52
2022-11-03T09:24:50.618Z,14.13
2022-11-03T09:27:18.134Z,10.55
2022-11-03T09:30:11.084Z,8.68
2022-11-03T09:32:34.485Z,9.50
2022-11-03T09:35:02.021Z,11.98
2022-11-03T09:37:29.696Z,13.18
2022-11-03T09:44:03.456Z,11.70
2022-11-03T10:32:55.701Z,4.53
2022-11-03T10:35:35.681Z,7.25
2022-11-03T10:38:29.323Z,6.72
2022-11-03T10:41:21.355Z,4.47
2022-11-03T10:44:16.040Z,5.78
2022-11-03T10:47:04.519Z,6.95
2022-11-03T10:49:39.264Z,5.78
2022-11-03T10:52:24.660Z,7.05
2022-11-03T10:54:56.392Z,8.95
2022-11-03T10:57:28.583Z,3.80
2022-11-03T10:59:56.747Z,3.70
2022-11-03T11:02:33.186Z,6.28
2022-11-03T11:05:16.253Z,8.05
2022-11-03T11:07:45.400Z,6.80
2022-11-03T11:10:18.862Z,5.78
2022-11-03T11:13:18.916Z,7.35
2022-11-03T11:15:54.161Z,7.85
2022-11-03T12:02:24.522Z,7.55
2022-11-03T12:05:03.799Z,11.63
2022-11-03T12:07:37.580Z,5.75
2022-11-03T12:10:10.400Z,8.38
2022-11-03T12:12:37.643Z,8.27
2022-11-03T12:15:05.368Z,9.73
2022-11-03T12:17:33.663Z,12.13
2022-11-03T12:20:00.881Z,7.03
2022-11-03T12:22:48.350Z,7.38
2022-11-03T12:25:46.601Z,6.10
2022-11-03T12:28:35.265Z,12.20
2022-11-03T12:31:04.080Z,6.70
2022-11-03T12:33:31.885Z,8.88
2022-11-03T12:35:59.397Z,9.88
2022-11-03T12:38:29.980Z,8.25
2022-11-03T12:40:57.584Z,9.27
2022-11-03T12:43:24.872Z,5.35
2022-11-03T12:45:53.773Z,11.63
2022-11-03T12:48:21.282Z,7.53
2022-11-03T12:50:48.746Z,10.98
2022-11-03T12:53:16.075Z,10.30
2022-11-03T14:12:54.326Z,10.45
2022-11-03T14:19:41.239Z,13.00
2022-11-03T14:22:11.309Z,8.73
2022-11-03T14:24:47.663Z,11.10
2022-11-03T14:27:19.448Z,16.25
2022-11-03T14:29:55.647Z,10.45
2022-11-03T14:35:29.823Z,10.98
2022-11-03T14:38:08.572Z,13.02
2022-11-03T14:41:25.429Z,9.25
2022-11-03T15:08:56.339Z,9.80
2022-11-03T15:11:25.075Z,17.02
2022-11-03T15:14:06.351Z,18.40
2022-11-03T15:26:59.674Z,13.18
2022-11-03T15:29:27.946Z,13.63
2022-11-03T15:31:55.190Z,15.90
2022-11-03T15:34:22.484Z,14.35
2022-11-03T15:36:49.732Z,15.13
2022-11-03T15:39:17.976Z,13.30
2022-11-03T16:10:33.620Z,23.83
2022-11-03T16:28:19.706Z,21.67
2022-11-03T16:30:53.797Z,18.42
2022-11-03T16:33:22.289Z,18.23
2022-11-03T16:35:49.915Z,18.42
2022-11-03T16:38:17.465Z,13.52
2022-11-03T16:40:45.151Z,18.85
2022-11-03T16:43:12.932Z,15.75
2022-11-03T16:45:40.157Z,18.58
2022-11-03T16:48:07.974Z,23.52
2022-11-03T16:50:35.450Z,17.27
2022-11-03T16:53:03.376Z,18.27
2022-11-03T16:55:30.912Z,15.70
2022-11-03T16:57:58.275Z,14.27
2022-11-03T17:00:26.578Z,16.75
2022-11-03T17:02:54.292Z,14.50
2022-11-03T17:05:22.552Z,18.42
2022-11-03T17:07:53.522Z,13.60
2022-11-03T17:10:22.661Z,22.08
2022-11-03T17:12:50.627Z,19.40
2022-11-03T17:15:18.306Z,21.27
2022-11-03T17:19:26.561Z,15.95
2022-11-03T17:21:54.483Z,12.82
2022-11-03T17:24:21.830Z,19.92
2022-11-03T17:27:05.039Z,15.80
2022-11-03T17:29:41.865Z,15.63
2022-11-03T17:32:44.639Z,16.15
2022-11-03T17:35:39.309Z,19.73
2022-11-03T17:38:13.956Z,15.60
2022-11-03T17:40:47.767Z,13.18
2022-11-03T17:43:31.547Z,17.33
2022-11-03T17:46:00.892Z,17.38
2022-11-03T17:48:37.096Z,14.88
2022-11-03T17:51:18.301Z,13.07
2022-11-03T17:53:47.566Z,16.05
2022-11-03T17:56:30.742Z,16.20
2022-11-03T17:59:17.560Z,17.58
2022-11-03T18:01:56.759Z,21.23
2022-11-03T18:05:30.670Z,20.73
2022-11-03T18:08:11.759Z,18.63
2022-11-03T18:10:46.819Z,21.02
2022-11-03T18:14:02.866Z,23.98
2022-11-03T18:16:32.013Z,19.00
2022-11-03T18:19:00.308Z,19.55
2022-11-03T18:21:29.902Z,17.30
2022-11-03T18:23:58.962Z,17.42
2022-11-03T18:34:20.681Z,17.33
2022-11-03T18:36:49.105Z,25.20
2022-11-03T18:39:27.862Z,20.65
2022-11-03T18:41:55.674Z,23.88
2022-11-03T18:44:29.014Z,16.77
2022-11-03T18:46:58.232Z,19.30
2022-11-03T18:49:27.643Z,20.15
2022-11-03T18:52:03.483Z,20.38
2022-11-03T18:54:34.310Z,21.02
2022-11-03T18:57:02.686Z,19.20
2022-11-03T18:59:37.111Z,17.10
2022-11-03T19:02:20.526Z,20.65
2022-11-03T19:04:48.758Z,22.40
2022-11-03T19:07:31.501Z,20.38
2022-11-03T19:10:00.181Z,19.33
2022-11-03T19:12:27.508Z,19.25
2022-11-03T19:14:56.039Z,24.08
2022-11-03T19:17:25.666Z,21.67
2022-11-03T19:19:53.815Z,20.50
2022-11-03T19:22:23.453Z,19.92
2022-11-03T19:24:51.106Z,20.15
2022-11-03T19:27:31.631Z,21.10
2022-11-03T19:30:02.291Z,22.63
2022-11-03T19:32:36.945Z,26.63
2022-11-03T19:35:17.724Z,20.30
2022-11-03T19:37:48.750Z,19.65
2022-11-03T19:40:19.907Z,20.17
2022-11-03T19:42:50.192Z,19.35
2022-11-03T19:45:20.637Z,19.73
2022-11-03T19:50:48.665Z,19.92
2022-11-03T19:53:26.244Z,24.30
2022-11-03T19:55:54.896Z,22.90
2022-11-03T19:58:27.644Z,23.63
2022-11-03T20:03:24.544Z,22.55
2022-11-03T20:05:56.523Z,23.00
2022-11-03T20:08:27.979Z,26.40
2022-11-03T20:10:55.888Z,23.67
2022-11-03T20:13:32.176Z,24.25
2022-11-03T20:16:01.318Z,21.35
2022-11-03T20:18:29.266Z,34.53
2022-11-03T20:20:56.849Z,24.17
2022-11-03T20:23:33.109Z,28.50
2022-11-03T20:26:02.297Z,24.08
2022-11-03T20:28:32.373Z,25.75
2022-11-03T20:31:02.132Z,23.40
2022-11-03T20:33:31.194Z,29.65
2022-11-03T20:35:59.124Z,23.50
2022-11-03T20:38:27.996Z,23.25
2022-11-03T20:41:00.494Z,24.67
2022-11-03T20:46:04.160Z,23.90
2022-11-03T20:48:31.289Z,23.50
2022-11-03T20:50:58.528Z,25.05
2022-11-03T20:53:26.571Z,24.02
2022-11-03T20:55:54.216Z,23.48
2022-11-03T20:58:22.139Z,21.88
2022-11-03T21:00:50.040Z,22.50
2022-11-03T21:03:45.139Z,22.95
2022-11-03T21:06:18.298Z,20.48
2022-11-03T21:08:47.746Z,22.95
2022-11-03T21:11:27.067Z,22.98
2022-11-03T21:14:02.885Z,18.30
2022-11-03T21:16:49.325Z,23.80
2022-11-03T21:19:45.202Z,22.83
2022-11-03T21:22:45.742Z,20.40
2022-11-03T21:25:18.960Z,24.13
2022-11-03T21:27:47.456Z,24.75
2022-11-03T21:30:16.929Z,27.25
2022-11-03T21:32:44.235Z,24.73
2022-11-03T21:35:18.353Z,28.55
2022-11-03T21:37:45.775Z,26.27
2022-11-03T21:40:13.518Z,27.35
2022-11-03T21:42:59.516Z,24.15
2022-11-03T21:45:26.847Z,22.25
2022-11-03T21:48:14.309Z,22.73
2022-11-03T21:50:43.324Z,22.10
2022-11-03T21:53:11.710Z,22.52
2022-11-03T21:55:40.066Z,27.45
2022-11-03T21:58:07.973Z,22.73
2022-11-03T22:00:36.676Z,23.83
2022-11-03T22:03:04.020Z,26.15
2022-11-03T22:05:31.180Z,25.35
2022-11-03T22:07:58.465Z,17.48
2022-11-03T22:10:25.859Z,26.90
2022-11-03T22:12:53.209Z,32.45
2022-11-03T22:15:40.734Z,26.70
2022-11-03T22:19:05.776Z,21.63
2022-11-03T22:21:52.401Z,29.55
2022-11-03T22:24:38.034Z,22.63
2022-11-03T22:27:05.336Z,23.98
2022-11-03T22:32:50.963Z,23.65
2022-11-03T22:40:09.413Z,20.63
2022-11-03T22:42:56.769Z,24.65
2022-11-03T22:45:42.655Z,21.73
2022-11-03T22:48:10.995Z,24.85
2022-11-03T22:50:38.960Z,23.55
2022-11-03T22:53:42.699Z,22.23
2022-11-03T22:56:10.295Z,17.67
2022-11-03T22:58:37.610Z,22.13
2022-11-03T23:01:10.778Z,18.17
2022-11-03T23:03:40.563Z,24.35
2022-11-03T23:06:19.443Z,19.83
2022-11-03T23:08:48.836Z,18.52
2022-11-03T23:11:21.085Z,17.30
2022-11-03T23:16:32.856Z,19.67
2022-11-03T23:19:20.073Z,21.92
2022-11-03T23:21:51.045Z,21.73
2022-11-03T23:24:42.262Z,26.33
2022-11-03T23:27:14.161Z,21.45
2022-11-03T23:29:44.086Z,20.25
2022-11-03T23:32:11.361Z,22.42
2022-11-03T23:34:39.878Z,25.52
2022-11-03T23:37:07.115Z,20.38
2022-11-03T23:39:34.259Z,19.08
2022-11-03T23:42:01.796Z,18.25
2022-11-03T23:45:03.201Z,22.27
2022-11-03T23:47:49.578Z,15.75
2022-11-03T23:50:17.837Z,15.02
2022-11-03T23:52:45.048Z,17.00
2022-11-03T23:55:12.317Z,18.05
2022-11-03T23:57:57.893Z,18.48
